sensor_id;sensor_type;location;lat;lon;timestamp;pressure;altitude;pressure_sealevel;temperature;humidity
73516;BME280;61763;51.416;5.442;2022-10-16T00:01:19;100956.91;;;11.33;100.00
73516;BME280;61763;51.416;5.442;2022-10-16T00:03:46;100948.31;;;11.25;100.00
73516;BME280;61763;51.416;5.442;2022-10-16T00:06:12;100960.41;;;11.35;100.00
73516;BME280;61763;51.416;5.442;2022-10-16T00:08:38;100952.63;;;11.46;100.00
73516;BME280;61763;51.416;5.442;2022-10-16T00:11:12;100950.41;;;11.37;100.00
73516;BME280;61763;51.416;5.442;2022-10-16T00:13:40;100950.56;;;11.34;100.00
73516;BME280;61763;51.416;5.442;2022-10-16T00:16:07;100945.88;;;11.37;100.00
73516;BME280;61763;51.416;5.442;2022-10-16T00:18:33;100954.78;;;11.39;100.00
73516;BME280;61763;51.416;5.442;2022-10-16T00:21:06;100954.44;;;11.28;100.00
73516;BME280;61763;51.416;5.442;2022-10-16T00:23:32;100951.19;;;11.21;100.00
73516;BME280;61763;51.416;5.442;2022-10-16T00:26:00;100949.38;;;11.22;100.00
73516;BME280;61763;51.416;5.442;2022-10-16T00:28:26;100947.84;;;11.16;100.00
73516;BME280;61763;51.416;5.442;2022-10-16T00:30:52;100938.56;;;11.04;100.00
73516;BME280;61763;51.416;5.442;2022-10-16T00:33:18;100945.28;;;10.96;100.00
73516;BME280;61763;51.416;5.442;2022-10-16T00:35:43;100950.94;;;10.91;100.00
73516;BME280;61763;51.416;5.442;2022-10-16T00:38:09;100954.56;;;10.90;100.00
73516;BME280;61763;51.416;5.442;2022-10-16T00:40:34;100956.06;;;10.78;100.00
73516;BME280;61763;51.416;5.442;2022-10-16T00:43:00;100964.72;;;10.85;100.00
73516;BME280;61763;51.416;5.442;2022-10-16T00:45:25;100968.31;;;10.85;100.00
73516;BME280;61763;51.416;5.442;2022-10-16T00:47:52;100968.53;;;10.81;100.00
73516;BME280;61763;51.416;5.442;2022-10-16T00:50:26;100973.03;;;10.80;100.00
73516;BME280;61763;51.416;5.442;2022-10-16T00:52:54;100971.25;;;10.81;100.00
73516;BME280;61763;51.416;5.442;2022-10-16T00:55:20;100961.97;;;10.86;100.00
73516;BME280;61763;51.416;5.442;2022-10-16T00:57:45;100963.84;;;10.84;100.00
73516;BME280;61763;51.416;5.442;2022-10-16T01:00:15;100966.69;;;10.81;100.00
73516;BME280;61763;51.416;5.442;2022-10-16T01:02:41;100956.44;;;10.71;100.00
73516;BME280;61763;51.416;5.442;2022-10-16T01:05:07;100963.00;;;10.65;100.00
73516;BME280;61763;51.416;5.442;2022-10-16T01:08:18;100964.47;;;10.72;100.00
73516;BME280;61763;51.416;5.442;2022-10-16T01:11:12;100950.09;;;10.52;100.00
73516;BME280;61763;51.416;5.442;2022-10-16T01:13:43;100948.66;;;10.45;100.00
73516;BME280;61763;51.416;5.442;2022-10-16T01:16:17;100945.00;;;10.46;100.00
73516;BME280;61763;51.416;5.442;2022-10-16T01:18:47;100950.69;;;10.40;100.00
73516;BME280;61763;51.416;5.442;2022-10-16T01:21:28;100951.38;;;10.45;100.00
73516;BME280;61763;51.416;5.442;2022-10-16T01:27:05;100957.69;;;10.44;100.00
73516;BME280;61763;51.416;5.442;2022-10-16T01:29:41;100965.03;;;10.60;100.00
73516;BME280;61763;51.416;5.442;2022-10-16T01:32:23;100957.63;;;10.46;100.00
73516;BME280;61763;51.416;5.442;2022-10-16T01:34:53;100963.47;;;10.56;100.00
73516;BME280;61763;51.416;5.442;2022-10-16T01:37:32;100959.81;;;10.57;100.00
73516;BME280;61763;51.416;5.442;2022-10-16T01:40:00;100964.47;;;10.53;100.00
73516;BME280;61763;51.416;5.442;2022-10-16T01:42:35;100971.41;;;10.59;100.00
73516;BME280;61763;51.416;5.442;2022-10-16T01:45:01;100967.41;;;10.67;100.00
73516;BME280;61763;51.416;5.442;2022-10-16T01:47:29;100966.00;;;10.59;100.00
73516;BME280;61763;51.416;5.442;2022-10-16T01:49:57;100960.53;;;10.60;100.00
73516;BME280;61763;51.416;5.442;2022-10-16T01:52:26;100957.69;;;10.63;100.00
73516;BME280;61763;51.416;5.442;2022-10-16T01:54:55;100962.00;;;10.67;100.00
73516;BME280;61763;51.416;5.442;2022-10-16T01:57:24;100957.53;;;10.66;100.00
73516;BME280;61763;51.416;5.442;2022-10-16T01:59:54;100963.81;;;10.67;100.00
73516;BME280;61763;51.416;5.442;2022-10-16T02:02:22;100966.69;;;10.81;100.00
73516;BME280;61763;51.416;5.442;2022-10-16T02:07:41;100966.13;;;10.75;100.00
73516;BME280;61763;51.416;5.442;2022-10-16T02:10:08;100977.22;;;10.68;100.00
73516;BME280;61763;51.416;5.442;2022-10-16T02:12:36;100975.50;;;10.67;100.00
73516;BME280;61763;51.416;5.442;2022-10-16T02:15:05;100973.13;;;10.60;100.00
73516;BME280;61763;51.416;5.442;2022-10-16T02:17:30;100965.13;;;10.58;100.00
73516;BME280;61763;51.416;5.442;2022-10-16T02:19:56;100959.81;;;10.57;100.00
73516;BME280;61763;51.416;5.442;2022-10-16T02:22:36;100961.63;;;10.56;100.00
73516;BME280;61763;51.416;5.442;2022-10-16T02:30:30;100965.34;;;10.54;100.00
73516;BME280;61763;51.416;5.442;2022-10-16T02:33:00;100963.38;;;10.57;100.00
73516;BME280;61763;51.416;5.442;2022-10-16T02:35:27;100967.97;;;10.55;100.00
73516;BME280;61763;51.416;5.442;2022-10-16T02:37:53;100968.03;;;10.54;100.00
73516;BME280;61763;51.416;5.442;2022-10-16T02:40:20;100971.84;;;10.49;100.00
73516;BME280;61763;51.416;5.442;2022-10-16T02:42:50;100971.03;;;10.47;100.00
73516;BME280;61763;51.416;5.442;2022-10-16T02:45:16;100962.44;;;10.39;100.00
73516;BME280;61763;51.416;5.442;2022-10-16T02:47:41;100963.63;;;10.33;100.00
73516;BME280;61763;51.416;5.442;2022-10-16T02:50:07;100971.16;;;10.25;100.00
73516;BME280;61763;51.416;5.442;2022-10-16T02:52:32;100974.16;;;10.19;100.00
73516;BME280;61763;51.416;5.442;2022-10-16T02:54:58;100963.50;;;10.16;100.00
73516;BME280;61763;51.416;5.442;2022-10-16T02:57:23;100969.16;;;10.10;100.00
73516;BME280;61763;51.416;5.442;2022-10-16T02:59:49;100969.38;;;10.05;100.00
73516;BME280;61763;51.416;5.442;2022-10-16T03:02:14;100968.66;;;10.02;100.00
73516;BME280;61763;51.416;5.442;2022-10-16T03:04:40;100982.06;;;10.03;100.00
73516;BME280;61763;51.416;5.442;2022-10-16T03:07:05;100981.13;;;10.04;100.00
73516;BME280;61763;51.416;5.442;2022-10-16T03:09:31;100985.47;;;10.07;100.00
73516;BME280;61763;51.416;5.442;2022-10-16T03:11:56;100990.41;;;10.17;100.00
73516;BME280;61763;51.416;5.442;2022-10-16T03:14:22;100983.47;;;10.12;100.00
73516;BME280;61763;51.416;5.442;2022-10-16T03:16:47;100982.31;;;10.17;100.00
73516;BME280;61763;51.416;5.442;2022-10-16T03:19:12;100992.13;;;10.18;100.00
73516;BME280;61763;51.416;5.442;2022-10-16T03:21:38;101003.88;;;10.17;100.00
73516;BME280;61763;51.416;5.442;2022-10-16T03:24:03;101001.13;;;10.19;100.00
73516;BME280;61763;51.416;5.442;2022-10-16T03:26:29;100994.81;;;10.39;100.00
73516;BME280;61763;51.416;5.442;2022-10-16T03:28:54;101001.25;;;10.37;100.00
73516;BME280;61763;51.416;5.442;2022-10-16T03:31:19;101012.03;;;10.37;100.00
73516;BME280;61763;51.416;5.442;2022-10-16T03:33:45;100999.78;;;10.48;100.00
73516;BME280;61763;51.416;5.442;2022-10-16T03:36:10;100993.56;;;10.46;100.00
73516;BME280;61763;51.416;5.442;2022-10-16T03:38:36;100990.78;;;10.48;100.00
73516;BME280;61763;51.416;5.442;2022-10-16T03:41:01;100994.16;;;10.53;100.00
73516;BME280;61763;51.416;5.442;2022-10-16T03:43:27;101003.06;;;10.55;100.00
73516;BME280;61763;51.416;5.442;2022-10-16T03:45:52;101010.91;;;10.60;100.00
73516;BME280;61763;51.416;5.442;2022-10-16T03:48:19;101009.75;;;10.65;100.00
73516;BME280;61763;51.416;5.442;2022-10-16T03:50:44;101006.03;;;10.68;100.00
73516;BME280;61763;51.416;5.442;2022-10-16T03:53:11;101021.22;;;10.71;100.00
73516;BME280;61763;51.416;5.442;2022-10-16T03:55:37;101020.09;;;10.75;100.00
73516;BME280;61763;51.416;5.442;2022-10-16T03:58:02;101026.16;;;10.80;100.00
73516;BME280;61763;51.416;5.442;2022-10-16T04:00:28;101021.84;;;10.95;100.00
73516;BME280;61763;51.416;5.442;2022-10-16T04:02:54;101014.59;;;10.95;100.00
73516;BME280;61763;51.416;5.442;2022-10-16T04:05:19;101011.84;;;10.97;100.00
73516;BME280;61763;51.416;5.442;2022-10-16T04:07:45;101013.81;;;10.93;100.00
73516;BME280;61763;51.416;5.442;2022-10-16T04:10:10;101018.34;;;10.93;100.00
73516;BME280;61763;51.416;5.442;2022-10-16T04:12:36;101023.84;;;10.91;100.00
73516;BME280;61763;51.416;5.442;2022-10-16T04:15:01;101028.34;;;10.91;100.00
73516;BME280;61763;51.416;5.442;2022-10-16T04:17:27;101026.75;;;10.86;100.00
73516;BME280;61763;51.416;5.442;2022-10-16T04:19:52;101028.34;;;10.91;100.00
73516;BME280;61763;51.416;5.442;2022-10-16T04:22:18;101024.47;;;10.96;100.00
73516;BME280;61763;51.416;5.442;2022-10-16T04:24:43;101029.00;;;10.96;100.00
73516;BME280;61763;51.416;5.442;2022-10-16T04:27:08;101032.78;;;10.92;100.00
73516;BME280;61763;51.416;5.442;2022-10-16T04:29:34;101022.72;;;10.95;100.00
73516;BME280;61763;51.416;5.442;2022-10-16T04:31:59;101020.97;;;10.94;100.00
73516;BME280;61763;51.416;5.442;2022-10-16T04:34:24;101035.03;;;11.01;100.00
73516;BME280;61763;51.416;5.442;2022-10-16T04:36:50;101031.69;;;10.96;100.00
73516;BME280;61763;51.416;5.442;2022-10-16T04:39:16;101031.53;;;10.99;100.00
73516;BME280;61763;51.416;5.442;2022-10-16T04:41:41;101028.78;;;11.00;100.00
73516;BME280;61763;51.416;5.442;2022-10-16T04:44:06;101037.81;;;10.99;100.00
73516;BME280;61763;51.416;5.442;2022-10-16T04:46:32;101035.13;;;10.99;100.00
73516;BME280;61763;51.416;5.442;2022-10-16T04:48:57;101038.97;;;10.94;100.00
73516;BME280;61763;51.416;5.442;2022-10-16T04:51:23;101053.22;;;10.97;100.00
73516;BME280;61763;51.416;5.442;2022-10-16T04:53:48;101054.47;;;10.90;100.00
73516;BME280;61763;51.416;5.442;2022-10-16T04:56:14;101042.81;;;10.90;100.00
73516;BME280;61763;51.416;5.442;2022-10-16T04:58:40;101048.84;;;10.95;100.00
73516;BME280;61763;51.416;5.442;2022-10-16T05:01:05;101064.09;;;10.96;100.00
73516;BME280;61763;51.416;5.442;2022-10-16T05:03:31;101050.84;;;10.91;100.00
73516;BME280;61763;51.416;5.442;2022-10-16T05:05:56;101057.16;;;10.90;100.00
73516;BME280;61763;51.416;5.442;2022-10-16T05:08:22;101059.09;;;10.88;100.00
73516;BME280;61763;51.416;5.442;2022-10-16T05:10:47;101062.41;;;10.93;100.00
73516;BME280;61763;51.416;5.442;2022-10-16T05:13:13;101075.31;;;11.05;100.00
73516;BME280;61763;51.416;5.442;2022-10-16T05:15:38;101083.78;;;10.98;100.00
73516;BME280;61763;51.416;5.442;2022-10-16T05:18:03;101088.97;;;11.02;100.00
73516;BME280;61763;51.416;5.442;2022-10-16T05:20:29;101089.94;;;11.01;100.00
73516;BME280;61763;51.416;5.442;2022-10-16T05:22:54;101074.88;;;11.15;100.00
73516;BME280;61763;51.416;5.442;2022-10-16T05:25:20;101090.22;;;10.95;100.00
73516;BME280;61763;51.416;5.442;2022-10-16T05:27:48;101090.09;;;10.98;100.00
73516;BME280;61763;51.416;5.442;2022-10-16T05:30:14;101082.72;;;11.02;100.00
73516;BME280;61763;51.416;5.442;2022-10-16T05:32:40;101092.06;;;10.95;100.00
73516;BME280;61763;51.416;5.442;2022-10-16T05:35:05;101093.50;;;10.83;100.00
73516;BME280;61763;51.416;5.442;2022-10-16T05:37:31;101095.44;;;10.81;100.00
73516;BME280;61763;51.416;5.442;2022-10-16T05:39:56;101101.53;;;10.84;100.00
73516;BME280;61763;51.416;5.442;2022-10-16T05:42:22;101104.31;;;10.83;100.00
73516;BME280;61763;51.416;5.442;2022-10-16T05:44:47;101111.03;;;10.74;100.00
73516;BME280;61763;51.416;5.442;2022-10-16T05:47:13;101115.63;;;10.72;100.00
73516;BME280;61763;51.416;5.442;2022-10-16T05:49:39;101127.28;;;10.73;100.00
73516;BME280;61763;51.416;5.442;2022-10-16T05:52:04;101126.13;;;10.78;100.00
73516;BME280;61763;51.416;5.442;2022-10-16T05:54:30;101123.59;;;10.75;100.00
73516;BME280;61763;51.416;5.442;2022-10-16T05:56:55;101131.00;;;10.70;100.00
73516;BME280;61763;51.416;5.442;2022-10-16T05:59:20;101144.56;;;10.68;100.00
73516;BME280;61763;51.416;5.442;2022-10-16T06:01:46;101138.63;;;10.81;100.00
73516;BME280;61763;51.416;5.442;2022-10-16T06:04:11;101140.94;;;10.69;100.00
73516;BME280;61763;51.416;5.442;2022-10-16T06:06:36;101148.50;;;10.61;100.00
73516;BME280;61763;51.416;5.442;2022-10-16T06:09:03;101150.31;;;10.61;100.00
73516;BME280;61763;51.416;5.442;2022-10-16T06:11:30;101148.88;;;10.73;100.00
73516;BME280;61763;51.416;5.442;2022-10-16T06:13:56;101156.53;;;10.63;100.00
73516;BME280;61763;51.416;5.442;2022-10-16T06:16:23;101149.75;;;10.73;100.00
73516;BME280;61763;51.416;5.442;2022-10-16T06:18:51;101165.22;;;10.69;100.00
73516;BME280;61763;51.416;5.442;2022-10-16T06:21:22;101170.91;;;10.63;100.00
73516;BME280;61763;51.416;5.442;2022-10-16T06:23:51;101170.47;;;10.73;100.00
73516;BME280;61763;51.416;5.442;2022-10-16T06:26:19;101159.47;;;10.77;100.00
73516;BME280;61763;51.416;5.442;2022-10-16T06:28:45;101172.25;;;10.74;100.00
73516;BME280;61763;51.416;5.442;2022-10-16T06:31:11;101168.53;;;10.76;100.00
73516;BME280;61763;51.416;5.442;2022-10-16T06:33:37;101174.78;;;10.77;100.00
73516;BME280;61763;51.416;5.442;2022-10-16T06:36:08;101178.44;;;10.76;100.00
73516;BME280;61763;51.416;5.442;2022-10-16T06:38:35;101182.69;;;10.81;100.00
73516;BME280;61763;51.416;5.442;2022-10-16T06:41:01;101198.09;;;10.79;100.00
73516;BME280;61763;51.416;5.442;2022-10-16T06:43:28;101207.44;;;10.91;100.00
73516;BME280;61763;51.416;5.442;2022-10-16T06:45:56;101208.75;;;10.82;100.00
73516;BME280;61763;51.416;5.442;2022-10-16T06:48:22;101205.75;;;10.89;100.00
73516;BME280;61763;51.416;5.442;2022-10-16T06:51:11;101219.13;;;10.92;100.00
73516;BME280;61763;51.416;5.442;2022-10-16T06:53:39;101227.34;;;10.89;100.00
73516;BME280;61763;51.416;5.442;2022-10-16T06:58:38;101225.31;;;10.94;100.00
73516;BME280;61763;51.416;5.442;2022-10-16T07:01:04;101240.13;;;11.04;100.00
73516;BME280;61763;51.416;5.442;2022-10-16T07:03:30;101244.09;;;11.16;100.00
73516;BME280;61763;51.416;5.442;2022-10-16T07:05:56;101242.28;;;11.16;100.00
73516;BME280;61763;51.416;5.442;2022-10-16T07:08:21;101247.34;;;11.24;100.00
73516;BME280;61763;51.416;5.442;2022-10-16T07:10:47;101250.34;;;11.37;100.00
73516;BME280;61763;51.416;5.442;2022-10-16T07:13:12;101250.28;;;11.38;100.00
73516;BME280;61763;51.416;5.442;2022-10-16T07:15:41;101252.75;;;11.43;100.00
73516;BME280;61763;51.416;5.442;2022-10-16T07:18:07;101256.53;;;11.58;100.00
73516;BME280;61763;51.416;5.442;2022-10-16T07:20:33;101254.44;;;11.65;100.00
73516;BME280;61763;51.416;5.442;2022-10-16T07:22:58;101265.97;;;11.68;100.00
73516;BME280;61763;51.416;5.442;2022-10-16T07:25:24;101272.97;;;11.72;100.00
73516;BME280;61763;51.416;5.442;2022-10-16T07:27:49;101270.63;;;11.84;100.00
73516;BME280;61763;51.416;5.442;2022-10-16T07:30:14;101281.16;;;11.90;100.00
73516;BME280;61763;51.416;5.442;2022-10-16T07:32:40;101271.50;;;12.03;100.00
73516;BME280;61763;51.416;5.442;2022-10-16T07:35:05;101287.75;;;12.03;100.00
73516;BME280;61763;51.416;5.442;2022-10-16T07:37:31;101295.53;;;12.09;100.00
73516;BME280;61763;51.416;5.442;2022-10-16T07:39:56;101301.38;;;12.19;100.00
73516;BME280;61763;51.416;5.442;2022-10-16T07:42:22;101291.31;;;12.40;100.00
73516;BME280;61763;51.416;5.442;2022-10-16T07:44:48;101296.31;;;12.48;100.00
73516;BME280;61763;51.416;5.442;2022-10-16T07:47:13;101305.25;;;12.68;100.00
73516;BME280;61763;51.416;5.442;2022-10-16T07:49:38;101305.72;;;12.76;100.00
73516;BME280;61763;51.416;5.442;2022-10-16T07:52:03;101316.13;;;13.01;100.00
73516;BME280;61763;51.416;5.442;2022-10-16T07:54:29;101312.88;;;13.12;100.00
73516;BME280;61763;51.416;5.442;2022-10-16T07:56:54;101324.16;;;13.20;100.00
73516;BME280;61763;51.416;5.442;2022-10-16T07:59:20;101324.25;;;13.19;100.00
73516;BME280;61763;51.416;5.442;2022-10-16T08:01:45;101323.28;;;13.37;100.00
73516;BME280;61763;51.416;5.442;2022-10-16T08:04:11;101340.75;;;13.65;100.00
73516;BME280;61763;51.416;5.442;2022-10-16T08:06:38;101337.53;;;13.74;100.00
73516;BME280;61763;51.416;5.442;2022-10-16T08:09:04;101336.88;;;13.69;100.00
73516;BME280;61763;51.416;5.442;2022-10-16T08:11:29;101343.63;;;13.78;100.00
73516;BME280;61763;51.416;5.442;2022-10-16T08:13:54;101343.16;;;13.87;100.00
73516;BME280;61763;51.416;5.442;2022-10-16T08:16:20;101346.19;;;13.97;100.00
73516;BME280;61763;51.416;5.442;2022-10-16T08:18:46;101357.69;;;14.02;100.00
73516;BME280;61763;51.416;5.442;2022-10-16T08:21:17;101357.16;;;14.11;98.66
73516;BME280;61763;51.416;5.442;2022-10-16T08:23:42;101351.91;;;14.24;99.07
73516;BME280;61763;51.416;5.442;2022-10-16T08:26:09;101351.25;;;14.35;97.58
73516;BME280;61763;51.416;5.442;2022-10-16T08:28:35;101354.91;;;14.50;96.32
73516;BME280;61763;51.416;5.442;2022-10-16T08:31:19;101359.66;;;14.46;96.72
73516;BME280;61763;51.416;5.442;2022-10-16T08:33:45;101356.59;;;14.68;95.58
73516;BME280;61763;51.416;5.442;2022-10-16T08:36:12;101362.97;;;14.67;94.79
73516;BME280;61763;51.416;5.442;2022-10-16T08:38:38;101361.09;;;14.84;94.98
73516;BME280;61763;51.416;5.442;2022-10-16T08:48:49;101379.94;;;15.17;91.04
73516;BME280;61763;51.416;5.442;2022-10-16T08:51:25;101375.75;;;15.26;89.15
73516;BME280;61763;51.416;5.442;2022-10-16T08:56:29;101390.47;;;15.52;88.61
73516;BME280;61763;51.416;5.442;2022-10-16T08:58:58;101387.94;;;15.49;88.08
73516;BME280;61763;51.416;5.442;2022-10-16T09:01:36;101395.22;;;15.63;88.77
73516;BME280;61763;51.416;5.442;2022-10-16T09:07:15;101394.09;;;15.96;85.83
73516;BME280;61763;51.416;5.442;2022-10-16T09:10:08;101397.59;;;15.98;86.55
73516;BME280;61763;51.416;5.442;2022-10-16T09:12:41;101399.03;;;16.04;85.56
73516;BME280;61763;51.416;5.442;2022-10-16T09:15:21;101396.44;;;16.29;83.44
73516;BME280;61763;51.416;5.442;2022-10-16T09:18:01;101398.50;;;16.40;83.77
73516;BME280;61763;51.416;5.442;2022-10-16T09:20:34;101402.91;;;16.56;81.67
73516;BME280;61763;51.416;5.442;2022-10-16T09:25:28;101411.88;;;16.58;80.15
73516;BME280;61763;51.416;5.442;2022-10-16T09:27:54;101419.72;;;16.62;81.39
73516;BME280;61763;51.416;5.442;2022-10-16T09:30:21;101415.38;;;16.87;80.56
73516;BME280;61763;51.416;5.442;2022-10-16T09:32:50;101417.41;;;16.84;79.04
73516;BME280;61763;51.416;5.442;2022-10-16T09:35:21;101428.72;;;16.92;79.04
73516;BME280;61763;51.416;5.442;2022-10-16T09:37:49;101423.78;;;16.70;78.53
73516;BME280;61763;51.416;5.442;2022-10-16T09:40:36;101426.34;;;16.86;76.99
73516;BME280;61763;51.416;5.442;2022-10-16T09:45:42;101429.81;;;17.02;76.78
73516;BME280;61763;51.416;5.442;2022-10-16T09:48:12;101430.94;;;17.25;76.29
73516;BME280;61763;51.416;5.442;2022-10-16T09:50:38;101432.59;;;17.28;76.03
73516;BME280;61763;51.416;5.442;2022-10-16T09:53:14;101425.28;;;17.28;76.13
73516;BME280;61763;51.416;5.442;2022-10-16T09:55:50;101433.78;;;17.11;75.16
73516;BME280;61763;51.416;5.442;2022-10-16T09:58:16;101434.00;;;17.21;74.99
73516;BME280;61763;51.416;5.442;2022-10-16T10:00:49;101420.03;;;17.25;74.76
73516;BME280;61763;51.416;5.442;2022-10-16T10:06:25;101427.38;;;17.38;75.69
73516;BME280;61763;51.416;5.442;2022-10-16T10:14:15;101442.16;;;17.99;71.91
73516;BME280;61763;51.416;5.442;2022-10-16T10:16:42;101441.59;;;17.68;71.63
73516;BME280;61763;51.416;5.442;2022-10-16T10:19:15;101443.97;;;17.47;72.72
73516;BME280;61763;51.416;5.442;2022-10-16T10:21:41;101443.09;;;17.47;72.63
73516;BME280;61763;51.416;5.442;2022-10-16T10:24:13;101448.31;;;17.37;72.54
73516;BME280;61763;51.416;5.442;2022-10-16T10:26:47;101444.84;;;17.35;73.66
73516;BME280;61763;51.416;5.442;2022-10-16T10:29:24;101447.16;;;17.54;73.19
73516;BME280;61763;51.416;5.442;2022-10-16T10:35:12;101456.97;;;17.69;72.45
73516;BME280;61763;51.416;5.442;2022-10-16T10:45:48;101468.56;;;17.73;70.25
73516;BME280;61763;51.416;5.442;2022-10-16T10:48:22;101458.94;;;17.55;70.55
73516;BME280;61763;51.416;5.442;2022-10-16T10:50:56;101472.47;;;17.43;71.56
73516;BME280;61763;51.416;5.442;2022-10-16T10:56:19;101466.34;;;17.52;70.08
73516;BME280;61763;51.416;5.442;2022-10-16T10:59:08;101464.50;;;17.53;70.16
73516;BME280;61763;51.416;5.442;2022-10-16T11:01:49;101470.16;;;17.50;69.59
73516;BME280;61763;51.416;5.442;2022-10-16T11:07:11;101471.47;;;17.04;72.48
73516;BME280;61763;51.416;5.442;2022-10-16T11:09:45;101474.63;;;17.38;70.96
73516;BME280;61763;51.416;5.442;2022-10-16T11:14:50;101472.16;;;18.12;68.80
73516;BME280;61763;51.416;5.442;2022-10-16T11:17:26;101463.25;;;18.47;67.07
73516;BME280;61763;51.416;5.442;2022-10-16T11:19:58;101465.94;;;18.60;68.26
73516;BME280;61763;51.416;5.442;2022-10-16T11:27:39;101467.47;;;19.01;63.20
73516;BME280;61763;51.416;5.442;2022-10-16T11:30:14;101473.53;;;18.94;62.67
73516;BME280;61763;51.416;5.442;2022-10-16T11:35:37;101469.91;;;18.56;65.27
73516;BME280;61763;51.416;5.442;2022-10-16T11:38:11;101480.69;;;18.33;63.65
73516;BME280;61763;51.416;5.442;2022-10-16T11:40:41;101485.81;;;18.12;65.03
73516;BME280;61763;51.416;5.442;2022-10-16T11:43:25;101480.41;;;17.99;67.43
73516;BME280;61763;51.416;5.442;2022-10-16T11:45:54;101486.28;;;18.06;66.64
73516;BME280;61763;51.416;5.442;2022-10-16T11:48:30;101487.78;;;18.23;65.68
73516;BME280;61763;51.416;5.442;2022-10-16T11:51:14;101480.56;;;18.35;66.03
73516;BME280;61763;51.416;5.442;2022-10-16T11:54:04;101480.13;;;18.65;65.21
73516;BME280;61763;51.416;5.442;2022-10-16T11:56:37;101473.75;;;18.90;63.93
73516;BME280;61763;51.416;5.442;2022-10-16T12:04:47;101478.06;;;18.69;64.05
73516;BME280;61763;51.416;5.442;2022-10-16T12:07:21;101469.59;;;18.85;63.24
73516;BME280;61763;51.416;5.442;2022-10-16T12:09:48;101476.81;;;18.86;63.29
73516;BME280;61763;51.416;5.442;2022-10-16T12:17:37;101492.28;;;18.24;66.23
73516;BME280;61763;51.416;5.442;2022-10-16T12:22:41;101507.56;;;18.27;66.33
73516;BME280;61763;51.416;5.442;2022-10-16T12:25:32;101501.22;;;18.00;66.75
73516;BME280;61763;51.416;5.442;2022-10-16T12:28:04;101494.38;;;17.95;66.42
73516;BME280;61763;51.416;5.442;2022-10-16T12:30:33;101486.91;;;18.23;64.09
73516;BME280;61763;51.416;5.442;2022-10-16T12:35:45;101485.72;;;19.25;60.83
73516;BME280;61763;51.416;5.442;2022-10-16T12:38:21;101477.38;;;19.62;61.54
73516;BME280;61763;51.416;5.442;2022-10-16T12:41:03;101479.72;;;20.13;58.87
73516;BME280;61763;51.416;5.442;2022-10-16T12:46:22;101477.34;;;20.31;57.83
73516;BME280;61763;51.416;5.442;2022-10-16T12:48:48;101482.34;;;20.04;56.86
73516;BME280;61763;51.416;5.442;2022-10-16T12:53:59;101480.97;;;19.16;58.80
73516;BME280;61763;51.416;5.442;2022-10-16T12:56:36;101473.38;;;19.19;59.50
73516;BME280;61763;51.416;5.442;2022-10-16T13:02:29;101473.88;;;18.76;60.51
73516;BME280;61763;51.416;5.442;2022-10-16T13:05:22;101473.53;;;18.56;62.26
73516;BME280;61763;51.416;5.442;2022-10-16T13:10:31;101472.66;;;18.43;64.28
73516;BME280;61763;51.416;5.442;2022-10-16T13:13:30;101484.25;;;18.47;64.43
73516;BME280;61763;51.416;5.442;2022-10-16T13:21:45;101486.28;;;18.56;65.61
73516;BME280;61763;51.416;5.442;2022-10-16T13:30:16;101495.19;;;18.47;64.44
73516;BME280;61763;51.416;5.442;2022-10-16T13:32:45;101503.34;;;18.60;64.36
73516;BME280;61763;51.416;5.442;2022-10-16T13:35:27;101504.91;;;18.51;64.42
73516;BME280;61763;51.416;5.442;2022-10-16T13:38:12;101501.41;;;18.49;64.56
73516;BME280;61763;51.416;5.442;2022-10-16T13:40:48;101512.41;;;18.60;64.20
73516;BME280;61763;51.416;5.442;2022-10-16T13:43:13;101506.59;;;18.65;64.13
73516;BME280;61763;51.416;5.442;2022-10-16T13:45:39;101514.13;;;18.74;63.74
73516;BME280;61763;51.416;5.442;2022-10-16T13:48:06;101504.00;;;18.63;63.57
73516;BME280;61763;51.416;5.442;2022-10-16T13:50:31;101506.69;;;18.76;64.27
73516;BME280;61763;51.416;5.442;2022-10-16T13:53:09;101502.75;;;18.80;64.91
73516;BME280;61763;51.416;5.442;2022-10-16T13:55:38;101502.41;;;18.85;65.19
73516;BME280;61763;51.416;5.442;2022-10-16T13:58:14;101511.81;;;18.81;65.13
73516;BME280;61763;51.416;5.442;2022-10-16T14:00:51;101509.19;;;18.79;64.85
73516;BME280;61763;51.416;5.442;2022-10-16T14:03:19;101505.72;;;18.77;63.98
73516;BME280;61763;51.416;5.442;2022-10-16T14:05:57;101523.78;;;18.67;64.94
73516;BME280;61763;51.416;5.442;2022-10-16T14:08:25;101512.63;;;18.70;65.13
73516;BME280;61763;51.416;5.442;2022-10-16T14:10:55;101521.72;;;18.58;65.39
73516;BME280;61763;51.416;5.442;2022-10-16T14:13:37;101520.75;;;18.46;66.68
73516;BME280;61763;51.416;5.442;2022-10-16T14:16:11;101526.22;;;18.33;67.42
73516;BME280;61763;51.416;5.442;2022-10-16T14:18:41;101519.44;;;18.38;66.64
73516;BME280;61763;51.416;5.442;2022-10-16T14:21:14;101505.91;;;18.37;66.04
73516;BME280;61763;51.416;5.442;2022-10-16T14:23:42;101498.72;;;18.36;67.10
73516;BME280;61763;51.416;5.442;2022-10-16T14:28:38;101501.13;;;18.28;66.10
73516;BME280;61763;51.416;5.442;2022-10-16T14:33:45;101494.44;;;18.45;67.55
73516;BME280;61763;51.416;5.442;2022-10-16T14:36:11;101486.66;;;18.38;66.43
73516;BME280;61763;51.416;5.442;2022-10-16T14:38:39;101485.69;;;18.39;66.71
73516;BME280;61763;51.416;5.442;2022-10-16T14:41:06;101495.59;;;18.53;66.02
73516;BME280;61763;51.416;5.442;2022-10-16T14:46:01;101494.47;;;18.69;66.93
73516;BME280;61763;51.416;5.442;2022-10-16T14:48:27;101496.34;;;18.68;67.91